PWSweather.com
Personal Weather Stations
Station Observations
TAMWORTH
TamworthGB

TamworthGB

Lat: 52.64844, Lon: -1.68986

Elevation: 275

Station Type: Davis 6162C Vantage Pro2 Plus with daytime FARS permanently connected to a dedicated HP Mini 110-4116sa series netbook computer

http://tamworthweather.com

Latest ConditionsUpdated 6:20:04 AM GMT Thursday, Mar 21, 2019
Currently Today's Max Today's Min Today's Average
Temperature 45.5°F7.5°C 47.1°F8.4°C 45.0°F7.2°C 46.1°F7.8°C
Dew Point 43.6°F6.4°C 44.6°F7.0°C 42.8°F6.0°C 43.8°F6.6°C
Winds 3.0 mph SW4.8 kmh SW 6.0 mph -9.7 kmh - - 4.6 mph 7.4 kmh
Wind Gusts 7.0 mph11.3 kmh 12.0 mph19.3 kmh - -
Humidity 93% 93% 91% 92%
Pressure 30.45 in1031.2 mb 30.45 in1031.2 mb 30.42 in1030.1 mb -
Hour Temp Dew Point Humidity Winds Wind Gusts Pressure Precip Precip Rate Daily Precip Total
06:20 AM 45.5°F7.5°C 43.6°F6.4°C 93% 3.0 mph SW4.8 kmh SW 7.0 mph11.3 kmh 30.45 in1031.2 mb 0.00 in0.0 mm 0.00 in0.0 mm 0.00 in0.0 mm
06:10 AM 45.3°F7.4°C 43.4°F6.3°C 93% 3.0 mph SSW4.8 kmh SSW 7.0 mph11.3 kmh 30.45 in1031.2 mb 0.00 in0.0 mm 0.00 in0.0 mm 0.00 in0.0 mm
06:00 AM 45.1°F7.3°C 43.0°F6.1°C 92% 3.0 mph S4.8 kmh S 5.0 mph8.0 kmh 30.45 in1031.2 mb 0.00 in0.0 mm 0.00 in0.0 mm 0.00 in0.0 mm
05:50 AM 45.1°F7.3°C 43.0°F6.1°C 92% 3.0 mph S4.8 kmh S 5.0 mph8.0 kmh 30.45 in1031.2 mb 0.00 in0.0 mm 0.00 in0.0 mm 0.00 in0.0 mm
05:40 AM 45.1°F7.3°C 43.0°F6.1°C 92% 4.0 mph S6.4 kmh S 7.0 mph11.3 kmh 30.45 in1031.2 mb 0.00 in0.0 mm 0.00 in0.0 mm 0.00 in0.0 mm
05:30 AM 45.1°F7.3°C 43.0°F6.1°C 92% 3.0 mph S4.8 kmh S 7.0 mph11.3 kmh 30.45 in1031.2 mb 0.00 in0.0 mm 0.00 in0.0 mm 0.00 in0.0 mm
05:20 AM 45.0°F7.2°C 42.8°F6.0°C 92% 3.0 mph S4.8 kmh S 6.0 mph9.7 kmh 30.44 in1030.8 mb 0.00 in0.0 mm 0.00 in0.0 mm 0.00 in0.0 mm
05:10 AM 45.1°F7.3°C 43.0°F6.1°C 92% 4.0 mph S6.4 kmh S 6.0 mph9.7 kmh 30.44 in1030.8 mb 0.00 in0.0 mm 0.00 in0.0 mm 0.00 in0.0 mm
05:00 AM 45.1°F7.3°C 43.0°F6.1°C 92% 4.0 mph S6.4 kmh S 7.0 mph11.3 kmh 30.44 in1030.8 mb 0.00 in0.0 mm 0.00 in0.0 mm 0.00 in0.0 mm
04:50 AM 45.3°F7.4°C 43.1°F6.2°C 92% 4.0 mph S6.4 kmh S 6.0 mph9.7 kmh 30.43 in1030.5 mb 0.00 in0.0 mm 0.00 in0.0 mm 0.00 in0.0 mm
04:40 AM 45.3°F7.4°C 43.1°F6.2°C 92% 5.0 mph S8.0 kmh S 7.0 mph11.3 kmh 30.43 in1030.5 mb 0.00 in0.0 mm 0.00 in0.0 mm 0.00 in0.0 mm
04:30 AM 45.7°F7.6°C 43.5°F6.4°C 92% 5.0 mph SSW8.0 kmh SSW 7.0 mph11.3 kmh 30.43 in1030.5 mb 0.00 in0.0 mm 0.00 in0.0 mm 0.00 in0.0 mm
04:20 AM 45.7°F7.6°C 43.5°F6.4°C 92% 6.0 mph SSW9.7 kmh SSW 9.0 mph14.5 kmh 30.43 in1030.5 mb 0.00 in0.0 mm 0.00 in0.0 mm 0.00 in0.0 mm
04:10 AM 45.9°F7.7°C 43.7°F6.5°C 92% 5.0 mph SSW8.0 kmh SSW 8.0 mph12.9 kmh 30.43 in1030.5 mb 0.00 in0.0 mm 0.00 in0.0 mm 0.00 in0.0 mm
04:00 AM 45.9°F7.7°C 43.7°F6.5°C 92% 5.0 mph SSW8.0 kmh SSW 8.0 mph12.9 kmh 30.43 in1030.5 mb 0.00 in0.0 mm 0.00 in0.0 mm 0.00 in0.0 mm
03:50 AM 45.9°F7.7°C 43.7°F6.5°C 92% 3.0 mph SSW4.8 kmh SSW 7.0 mph11.3 kmh 30.43 in1030.5 mb 0.00 in0.0 mm 0.00 in0.0 mm 0.00 in0.0 mm
03:40 AM 45.9°F7.7°C 43.7°F6.5°C 92% 3.0 mph SSW4.8 kmh SSW 4.0 mph6.4 kmh 30.43 in1030.5 mb 0.00 in0.0 mm 0.00 in0.0 mm 0.00 in0.0 mm
03:30 AM 46.0°F7.8°C 43.8°F6.6°C 92% 4.0 mph SSW6.4 kmh SSW 7.0 mph11.3 kmh 30.43 in1030.5 mb 0.00 in0.0 mm 0.00 in0.0 mm 0.00 in0.0 mm
03:20 AM 46.2°F7.9°C 44.0°F6.7°C 92% 5.0 mph SSW8.0 kmh SSW 8.0 mph12.9 kmh 30.43 in1030.5 mb 0.00 in0.0 mm 0.00 in0.0 mm 0.00 in0.0 mm
03:10 AM 46.0°F7.8°C 43.8°F6.6°C 92% 6.0 mph SSW9.7 kmh SSW 8.0 mph12.9 kmh 30.43 in1030.5 mb 0.00 in0.0 mm 0.00 in0.0 mm 0.00 in0.0 mm
03:00 AM 46.0°F7.8°C 43.8°F6.6°C 92% 6.0 mph SSW9.7 kmh SSW 10.0 mph16.1 kmh 30.43 in1030.5 mb 0.00 in0.0 mm 0.00 in0.0 mm 0.00 in0.0 mm
02:50 AM 46.2°F7.9°C 43.7°F6.5°C 91% 6.0 mph SSW9.7 kmh SSW 10.0 mph16.1 kmh 30.43 in1030.5 mb 0.00 in0.0 mm 0.00 in0.0 mm 0.00 in0.0 mm
02:40 AM 46.8°F8.2°C 44.3°F6.8°C 91% 6.0 mph SSW9.7 kmh SSW 10.0 mph16.1 kmh 30.42 in1030.1 mb 0.00 in0.0 mm 0.00 in0.0 mm 0.00 in0.0 mm
02:30 AM 46.6°F8.1°C 44.1°F6.7°C 91% 6.0 mph SSW9.7 kmh SSW 10.0 mph16.1 kmh 30.42 in1030.1 mb 0.00 in0.0 mm 0.00 in0.0 mm 0.00 in0.0 mm
02:20 AM 46.6°F8.1°C 44.1°F6.7°C 91% 6.0 mph SSW9.7 kmh SSW 10.0 mph16.1 kmh 30.42 in1030.1 mb 0.00 in0.0 mm 0.00 in0.0 mm 0.00 in0.0 mm
02:10 AM 46.6°F8.1°C 44.1°F6.7°C 91% 6.0 mph SSW9.7 kmh SSW 12.0 mph19.3 kmh 30.43 in1030.5 mb 0.00 in0.0 mm 0.00 in0.0 mm 0.00 in0.0 mm
02:00 AM 46.4°F8.0°C 43.9°F6.6°C 91% 5.0 mph SSW8.0 kmh SSW 9.0 mph14.5 kmh 30.43 in1030.5 mb 0.00 in0.0 mm 0.00 in0.0 mm 0.00 in0.0 mm
01:50 AM 46.6°F8.1°C 44.1°F6.7°C 91% 5.0 mph SSW8.0 kmh SSW 10.0 mph16.1 kmh 30.44 in1030.8 mb 0.00 in0.0 mm 0.00 in0.0 mm 0.00 in0.0 mm
01:40 AM 46.6°F8.1°C 44.1°F6.7°C 91% 6.0 mph SSW9.7 kmh SSW 10.0 mph16.1 kmh 30.44 in1030.8 mb 0.00 in0.0 mm 0.00 in0.0 mm 0.00 in0.0 mm
01:30 AM 46.8°F8.2°C 44.3°F6.8°C 91% 6.0 mph SW9.7 kmh SW 11.0 mph17.7 kmh 30.44 in1030.8 mb 0.00 in0.0 mm 0.00 in0.0 mm 0.00 in0.0 mm
01:20 AM 46.8°F8.2°C 44.3°F6.8°C 91% 4.0 mph SW6.4 kmh SW 10.0 mph16.1 kmh 30.44 in1030.8 mb 0.00 in0.0 mm 0.00 in0.0 mm 0.00 in0.0 mm
01:10 AM 46.9°F8.3°C 44.4°F6.9°C 91% 4.0 mph SW6.4 kmh SW 9.0 mph14.5 kmh 30.45 in1031.2 mb 0.00 in0.0 mm 0.00 in0.0 mm 0.00 in0.0 mm
01:00 AM 46.6°F8.1°C 44.1°F6.7°C 91% 3.0 mph SW4.8 kmh SW 8.0 mph12.9 kmh 30.45 in1031.2 mb 0.00 in0.0 mm 0.00 in0.0 mm 0.00 in0.0 mm
12:50 AM 46.6°F8.1°C 44.1°F6.7°C 91% 3.0 mph WSW4.8 kmh WSW 7.0 mph11.3 kmh 30.45 in1031.2 mb 0.00 in0.0 mm 0.00 in0.0 mm 0.00 in0.0 mm
12:40 AM 46.8°F8.2°C 44.3°F6.8°C 91% 4.0 mph SW6.4 kmh SW 7.0 mph11.3 kmh 30.45 in1031.2 mb 0.00 in0.0 mm 0.00 in0.0 mm 0.00 in0.0 mm
12:30 AM 46.8°F8.2°C 44.3°F6.8°C 91% 4.0 mph SW6.4 kmh SW 8.0 mph12.9 kmh 30.45 in1031.2 mb 0.00 in0.0 mm 0.00 in0.0 mm 0.00 in0.0 mm
12:20 AM 46.9°F8.3°C 44.4°F6.9°C 91% 5.0 mph SW8.0 kmh SW 8.0 mph12.9 kmh 30.45 in1031.2 mb 0.00 in0.0 mm 0.00 in0.0 mm 0.00 in0.0 mm
12:10 AM 46.9°F8.3°C 44.4°F6.9°C 91% 6.0 mph SW9.7 kmh SW 10.0 mph16.1 kmh 30.45 in1031.2 mb 0.00 in0.0 mm 0.00 in0.0 mm 0.00 in0.0 mm
12:00 AM 47.1°F8.4°C 44.6°F7.0°C 91% 6.0 mph SW9.7 kmh SW 12.0 mph19.3 kmh 30.45 in1031.2 mb 0.00 in0.0 mm 0.00 in0.0 mm 0.00 in0.0 mm